PST,Max TemperatureF,Mean TemperatureF,Min TemperatureF,Max Dew PointF,MeanDew PointF,Min DewpointF,Max Humidity, Mean Humidity, Min Humidity, Max Sea Level PressureIn, Mean Sea Level PressureIn, Min Sea Level PressureIn, Max VisibilityMiles, Mean VisibilityMiles, Min VisibilityMiles, Max Wind SpeedMPH, Mean Wind SpeedMPH, Max Gust SpeedMPH,PrecipitationIn, CloudCover, Events, WindDirDegrees
2011-11-1,76,60,43,49,24,4,93,51,8,30.06,30.01,29.98,10,10,10,33,14,44,0.00,0,,10
2011-11-2,77,57,37,38,20,4,76,43,9,30.11,30.04,29.98,10,10,10,22,6,26,0.00,0,,85
2011-11-3,57,45,33,47,40,31,92,77,61,29.98,29.86,29.78,10,10,5,20,6,24,0.01,4,Rain,263
2011-11-4,60,46,32,40,36,32,96,70,44,29.91,29.86,29.79,10,10,4,17,5,21,0.00,1,,253
2011-11-5,58,45,31,48,42,30,96,75,54,30.00,29.91,29.84,10,7,2,18,5,24,1.42,6,Rain,127
2011-11-6,59,49,38,47,43,37,100,79,57,30.14,29.98,29.88,10,5,0,15,3,26,0.01,5,Fog-Rain,264
2011-11-7,61,47,32,45,38,33,100,75,49,30.25,30.19,30.14,10,5,0,12,2,16,0.00,2,Fog,209
2011-11-8,63,49,34,44,39,33,100,73,46,30.33,30.27,30.24,10,10,9,10,4,15,0.00,1,,49
2011-11-9,63,50,36,41,38,33,92,68,43,30.27,30.20,30.12,10,10,10,20,8,25,0.00,0,,53
2011-11-10,68,53,38,40,37,35,86,59,32,30.14,30.02,29.88,10,10,10,17,7,23,0.00,0,,71
2011-11-11,57,49,41,50,43,37,89,74,59,29.87,29.79,29.75,10,10,6,16,6,26,0.11,5,Rain,36
2011-11-12,65,54,43,49,47,43,93,75,56,29.93,29.86,29.81,10,9,6,10,4,16,0.01,4,,16
2011-11-13,65,54,42,51,46,39,96,76,56,29.98,29.95,29.91,10,8,2,12,3,23,0.00,3,,294
2011-11-14,67,54,40,49,44,39,100,78,56,30.07,30.00,29.95,10,5,0,12,2,29,0.00,2,Fog,194
2011-11-15,66,51,35,47,40,36,100,73,45,30.16,30.11,30.05,10,6,0,7,3,17,0.00,1,Fog,219
2011-11-16,67,51,34,49,40,34,100,73,45,30.23,30.18,30.13,10,5,0,8,2,21,0.00,0,Fog,200
2011-11-17,66,52,37,52,44,37,100,80,60,30.21,30.15,30.02,10,4,0,17,6,51,0.00,6,Fog,273
2011-11-18,61,50,39,49,45,38,100,84,67,30.03,29.96,29.90,10,9,2,22,8,26,0.08,5,Rain,256
2011-11-19,55,44,32,44,37,30,100,77,54,30.00,29.90,29.67,10,6,0,23,5,31,0.17,4,Fog-Rain,91
2011-11-20,57,51,44,47,44,41,89,78,66,30.02,29.85,29.66,10,10,7,20,10,26,0.13,6,Rain,57
2011-11-21,57,47,36,46,41,35,93,78,62,30.23,30.14,30.02,10,10,7,9,3,13,0.00,2,,350
2011-11-22,62,50,37,48,41,37,100,78,55,30.27,30.20,30.06,10,8,0,10,3,14,0.00,3,Fog,85
2011-11-23,59,49,38,48,45,36,96,79,62,30.05,29.89,29.82,10,10,8,13,6,16,T,7,,119
2011-11-24,56,48,39,52,49,40,96,81,66,30.23,30.03,29.83,10,5,0,12,3,14,0.28,7,Fog-Rain,85
2011-11-25,59,49,38,52,45,37,100,86,72,30.38,30.33,30.22,10,7,0,7,2,18,0.01,6,Fog-Rain,36
2011-11-26,59,48,37,48,43,36,100,81,62,30.39,30.34,30.27,10,4,0,20,9,25,0.00,3,Fog,63
2011-11-27,58,50,42,49,44,41,100,86,72,30.34,30.30,30.25,10,5,0,15,6,21,0.00,3,Fog,80
2011-11-28,58,47,36,49,42,36,100,86,72,30.32,30.24,30.19,10,3,0,3,1,5,0.00,4,Fog,260
2011-11-29,59,47,35,49,41,34,100,86,72,30.27,30.21,30.15,10,3,0,6,1,20,0.00,3,Fog,209
2011-11-30,67,52,36,45,39,24,100,60,20,30.26,30.20,30.13,10,4,0,29,9,37,0.00,5,Fog,62